Huvudsida
METAR-TAF:

METAR-TAF

Flygplatser :

Alta, Norge

Alta flygplats

latitud: 69-59N, longitud: 023-22E, höjd: 0 m

Aktuellt väderrapport

Denna rapport gjordes för 35 minuter sedan, klockan 02:50 UTC
Vind 5 kt från syd/sydväst
Temperatur -11°C
Fuktighet 78%
Tryck 1008 hPa
Sikt 10 km eller mer
Spridda moln på en höjd av 1200 ft
Brutna moln på en höjd av 2200 ft
lätt snö

METAR: ENAT 190250Z 21005KT 9999 -SN SCT012 BKN022 M11/M14 Q1008 RMK WIND 700FT 15009KT

Tid: 04:25 (03:25 UTC)

Väderprognos

Denna rapport gjordes för 1 timme och 25 minuter sedan, klockan 02:00 UTC
Prognos gäller från 19 kl. 03 UTC till 19 kl. 12 UTC
Vind 6 kt från syd
Sikt 10 km eller mer
Få moln på en höjd av 1500 ft
Brutna moln på en höjd av 2000 ft

TAF: ENAT 190200Z 1903/1912 17006KT 9999 FEW015 BKN020

Aktuella väderrapporter och prognoser från 4000 flygplatser (METAR- och TAF-rapporter).

De tillgängliga stationerna syns som gula och röda prickar på kartan.

För musen över prickarna för att se namnen på stationerna.

Klicka sedan för att få väderrapporter och prognoser.

För att ändra kartan: Klicka på de gröna knapparna med ett svart kors på för att zooma in; den gröna knappen med ett streck på för att zooma ut; eller på de gröna pilarna för angränsande kartor.


METAR-TAF: